sensor_id;sensor_type;location;lat;lon;timestamp;temperature;humidity
18103;DHT22;9178;51.120;6.192;2022-11-03T00:01:14;10.80;99.90
18103;DHT22;9178;51.120;6.192;2022-11-03T00:03:41;10.90;99.90
18103;DHT22;9178;51.120;6.192;2022-11-03T00:06:07;10.80;99.90
18103;DHT22;9178;51.120;6.192;2022-11-03T00:08:37;10.80;99.90
18103;DHT22;9178;51.120;6.192;2022-11-03T00:11:06;10.80;99.90
18103;DHT22;9178;51.120;6.192;2022-11-03T00:13:34;10.80;99.90
18103;DHT22;9178;51.120;6.192;2022-11-03T00:16:01;10.80;99.90
18103;DHT22;9178;51.120;6.192;2022-11-03T00:18:29;10.80;99.90
18103;DHT22;9178;51.120;6.192;2022-11-03T00:20:58;10.80;99.90
18103;DHT22;9178;51.120;6.192;2022-11-03T00:23:26;10.70;99.90
18103;DHT22;9178;51.120;6.192;2022-11-03T00:25:53;10.70;99.90
18103;DHT22;9178;51.120;6.192;2022-11-03T00:28:20;10.70;99.90
18103;DHT22;9178;51.120;6.192;2022-11-03T00:30:47;10.70;99.90
18103;DHT22;9178;51.120;6.192;2022-11-03T00:33:14;10.70;99.90
18103;DHT22;9178;51.120;6.192;2022-11-03T00:35:42;10.80;99.90
18103;DHT22;9178;51.120;6.192;2022-11-03T00:38:09;10.80;99.90
18103;DHT22;9178;51.120;6.192;2022-11-03T00:40:36;10.90;99.90
18103;DHT22;9178;51.120;6.192;2022-11-03T00:43:02;10.90;99.90
18103;DHT22;9178;51.120;6.192;2022-11-03T00:45:29;11.00;99.90
18103;DHT22;9178;51.120;6.192;2022-11-03T00:47:56;10.90;99.90
18103;DHT22;9178;51.120;6.192;2022-11-03T00:50:42;11.00;99.90
18103;DHT22;9178;51.120;6.192;2022-11-03T00:53:08;11.00;99.90
18103;DHT22;9178;51.120;6.192;2022-11-03T00:55:35;11.00;99.90
18103;DHT22;9178;51.120;6.192;2022-11-03T00:58:02;11.00;99.90
18103;DHT22;9178;51.120;6.192;2022-11-03T01:00:29;10.90;99.90
18103;DHT22;9178;51.120;6.192;2022-11-03T01:02:56;11.00;99.90
18103;DHT22;9178;51.120;6.192;2022-11-03T01:05:22;10.90;99.90
18103;DHT22;9178;51.120;6.192;2022-11-03T01:08:08;11.00;99.90
18103;DHT22;9178;51.120;6.192;2022-11-03T01:10:36;11.00;99.90
18103;DHT22;9178;51.120;6.192;2022-11-03T01:13:23;11.00;99.90
18103;DHT22;9178;51.120;6.192;2022-11-03T01:15:50;11.00;99.90
18103;DHT22;9178;51.120;6.192;2022-11-03T01:18:17;11.00;99.90
18103;DHT22;9178;51.120;6.192;2022-11-03T01:20:44;11.10;99.90
18103;DHT22;9178;51.120;6.192;2022-11-03T01:23:12;11.10;99.90
18103;DHT22;9178;51.120;6.192;2022-11-03T01:25:39;11.10;99.90
18103;DHT22;9178;51.120;6.192;2022-11-03T01:31:28;11.20;99.90
18103;DHT22;9178;51.120;6.192;2022-11-03T01:33:55;11.20;99.90
18103;DHT22;9178;51.120;6.192;2022-11-03T01:36:22;11.20;99.90
18103;DHT22;9178;51.120;6.192;2022-11-03T01:38:52;11.20;99.90
18103;DHT22;9178;51.120;6.192;2022-11-03T01:41:21;11.20;99.90
18103;DHT22;9178;51.120;6.192;2022-11-03T01:43:50;11.20;99.90
18103;DHT22;9178;51.120;6.192;2022-11-03T01:46:20;11.20;99.90
18103;DHT22;9178;51.120;6.192;2022-11-03T01:48:53;11.20;99.90
18103;DHT22;9178;51.120;6.192;2022-11-03T01:51:24;11.30;99.90
18103;DHT22;9178;51.120;6.192;2022-11-03T01:53:55;11.30;99.90
18103;DHT22;9178;51.120;6.192;2022-11-03T01:56:25;11.40;99.90
18103;DHT22;9178;51.120;6.192;2022-11-03T01:58:53;11.40;99.90
18103;DHT22;9178;51.120;6.192;2022-11-03T02:01:21;11.50;99.90
18103;DHT22;9178;51.120;6.192;2022-11-03T02:03:51;11.40;99.90
18103;DHT22;9178;51.120;6.192;2022-11-03T02:06:20;11.40;99.90
18103;DHT22;9178;51.120;6.192;2022-11-03T02:08:50;11.40;99.90
18103;DHT22;9178;51.120;6.192;2022-11-03T02:11:19;11.40;99.90
18103;DHT22;9178;51.120;6.192;2022-11-03T02:14:03;11.40;99.90
18103;DHT22;9178;51.120;6.192;2022-11-03T02:16:31;11.40;99.90
18103;DHT22;9178;51.120;6.192;2022-11-03T02:19:00;11.40;99.90
18103;DHT22;9178;51.120;6.192;2022-11-03T02:21:30;11.40;99.90
18103;DHT22;9178;51.120;6.192;2022-11-03T02:24:03;11.40;99.90
18103;DHT22;9178;51.120;6.192;2022-11-03T02:26:34;11.40;99.90
18103;DHT22;9178;51.120;6.192;2022-11-03T02:29:01;11.40;99.90
18103;DHT22;9178;51.120;6.192;2022-11-03T02:31:37;11.40;99.90
18103;DHT22;9178;51.120;6.192;2022-11-03T02:34:11;11.50;99.90
18103;DHT22;9178;51.120;6.192;2022-11-03T02:36:43;11.50;99.90
18103;DHT22;9178;51.120;6.192;2022-11-03T02:39:16;11.40;99.90
18103;DHT22;9178;51.120;6.192;2022-11-03T02:41:47;11.40;99.90
18103;DHT22;9178;51.120;6.192;2022-11-03T02:44:17;11.40;99.90
18103;DHT22;9178;51.120;6.192;2022-11-03T02:46:46;11.40;99.90
18103;DHT22;9178;51.120;6.192;2022-11-03T02:49:14;11.40;99.90
18103;DHT22;9178;51.120;6.192;2022-11-03T02:51:42;11.50;99.90
18103;DHT22;9178;51.120;6.192;2022-11-03T02:54:13;11.50;99.90
18103;DHT22;9178;51.120;6.192;2022-11-03T02:56:47;11.40;99.90
18103;DHT22;9178;51.120;6.192;2022-11-03T02:59:18;11.40;99.90
18103;DHT22;9178;51.120;6.192;2022-11-03T03:01:51;11.30;99.90
18103;DHT22;9178;51.120;6.192;2022-11-03T03:04:25;11.30;99.90
18103;DHT22;9178;51.120;6.192;2022-11-03T03:06:56;11.30;99.90
18103;DHT22;9178;51.120;6.192;2022-11-03T03:09:26;11.20;99.90
18103;DHT22;9178;51.120;6.192;2022-11-03T03:11:57;11.20;99.90
18103;DHT22;9178;51.120;6.192;2022-11-03T03:14:28;11.20;99.90
18103;DHT22;9178;51.120;6.192;2022-11-03T03:16:59;11.20;99.90
18103;DHT22;9178;51.120;6.192;2022-11-03T03:19:35;11.20;99.90
18103;DHT22;9178;51.120;6.192;2022-11-03T03:22:10;11.10;99.90
18103;DHT22;9178;51.120;6.192;2022-11-03T03:24:46;11.20;99.90
18103;DHT22;9178;51.120;6.192;2022-11-03T03:27:17;11.20;99.90
18103;DHT22;9178;51.120;6.192;2022-11-03T03:29:50;11.20;99.90
18103;DHT22;9178;51.120;6.192;2022-11-03T03:32:21;11.20;99.90
18103;DHT22;9178;51.120;6.192;2022-11-03T03:34:50;11.20;99.90
18103;DHT22;9178;51.120;6.192;2022-11-03T03:37:18;11.30;99.90
18103;DHT22;9178;51.120;6.192;2022-11-03T03:39:50;11.30;99.90
18103;DHT22;9178;51.120;6.192;2022-11-03T03:42:20;11.30;99.90
18103;DHT22;9178;51.120;6.192;2022-11-03T03:44:48;11.30;99.90
18103;DHT22;9178;51.120;6.192;2022-11-03T03:47:20;11.30;99.90
18103;DHT22;9178;51.120;6.192;2022-11-03T03:49:48;11.30;99.90
18103;DHT22;9178;51.120;6.192;2022-11-03T03:52:15;11.30;99.90
18103;DHT22;9178;51.120;6.192;2022-11-03T03:54:42;11.30;99.90
18103;DHT22;9178;51.120;6.192;2022-11-03T03:57:12;11.30;99.90
18103;DHT22;9178;51.120;6.192;2022-11-03T03:59:42;11.30;99.90
18103;DHT22;9178;51.120;6.192;2022-11-03T04:02:10;11.30;99.90
18103;DHT22;9178;51.120;6.192;2022-11-03T04:04:37;11.30;99.90
18103;DHT22;9178;51.120;6.192;2022-11-03T04:07:04;11.30;99.90
18103;DHT22;9178;51.120;6.192;2022-11-03T04:09:48;11.40;99.90
18103;DHT22;9178;51.120;6.192;2022-11-03T04:12:15;11.40;99.90
18103;DHT22;9178;51.120;6.192;2022-11-03T04:15:01;11.50;99.90
18103;DHT22;9178;51.120;6.192;2022-11-03T04:17:46;11.50;99.90
18103;DHT22;9178;51.120;6.192;2022-11-03T04:20:31;11.50;99.90
18103;DHT22;9178;51.120;6.192;2022-11-03T04:23:16;11.50;99.90
18103;DHT22;9178;51.120;6.192;2022-11-03T04:25:47;11.60;99.90
18103;DHT22;9178;51.120;6.192;2022-11-03T04:28:15;11.60;99.90
18103;DHT22;9178;51.120;6.192;2022-11-03T04:30:44;11.60;99.90
18103;DHT22;9178;51.120;6.192;2022-11-03T04:33:13;11.60;99.90
18103;DHT22;9178;51.120;6.192;2022-11-03T04:35:41;11.60;99.90
18103;DHT22;9178;51.120;6.192;2022-11-03T04:38:20;11.60;99.90
18103;DHT22;9178;51.120;6.192;2022-11-03T04:40:51;11.60;99.90
18103;DHT22;9178;51.120;6.192;2022-11-03T04:43:20;11.60;99.90
18103;DHT22;9178;51.120;6.192;2022-11-03T04:45:49;11.60;99.90
18103;DHT22;9178;51.120;6.192;2022-11-03T04:48:20;11.60;99.90
18103;DHT22;9178;51.120;6.192;2022-11-03T04:50:49;11.60;99.90
18103;DHT22;9178;51.120;6.192;2022-11-03T04:53:18;11.70;99.90
18103;DHT22;9178;51.120;6.192;2022-11-03T04:55:48;11.70;99.90
18103;DHT22;9178;51.120;6.192;2022-11-03T04:58:20;11.80;99.90
18103;DHT22;9178;51.120;6.192;2022-11-03T05:00:51;11.80;99.90
18103;DHT22;9178;51.120;6.192;2022-11-03T05:03:22;11.80;99.90
18103;DHT22;9178;51.120;6.192;2022-11-03T05:05:49;11.80;99.90
18103;DHT22;9178;51.120;6.192;2022-11-03T05:08:17;11.80;99.90
18103;DHT22;9178;51.120;6.192;2022-11-03T05:10:45;11.80;99.90
18103;DHT22;9178;51.120;6.192;2022-11-03T05:13:16;11.80;99.90
18103;DHT22;9178;51.120;6.192;2022-11-03T05:15:50;11.80;99.90
18103;DHT22;9178;51.120;6.192;2022-11-03T05:18:19;11.80;99.90
18103;DHT22;9178;51.120;6.192;2022-11-03T05:20:50;11.80;99.90
18103;DHT22;9178;51.120;6.192;2022-11-03T05:23:18;11.70;99.90
18103;DHT22;9178;51.120;6.192;2022-11-03T05:25:49;11.70;99.90
18103;DHT22;9178;51.120;6.192;2022-11-03T05:28:23;11.70;99.90
18103;DHT22;9178;51.120;6.192;2022-11-03T05:30:52;11.70;99.90
18103;DHT22;9178;51.120;6.192;2022-11-03T05:33:26;11.60;99.90
18103;DHT22;9178;51.120;6.192;2022-11-03T05:35:53;11.60;99.90
18103;DHT22;9178;51.120;6.192;2022-11-03T05:38:21;11.50;99.90
18103;DHT22;9178;51.120;6.192;2022-11-03T05:40:51;11.50;99.90
18103;DHT22;9178;51.120;6.192;2022-11-03T05:43:19;11.40;99.90
18103;DHT22;9178;51.120;6.192;2022-11-03T05:45:48;11.40;99.90
18103;DHT22;9178;51.120;6.192;2022-11-03T05:48:19;11.40;99.90
18103;DHT22;9178;51.120;6.192;2022-11-03T05:50:48;11.40;99.90
18103;DHT22;9178;51.120;6.192;2022-11-03T05:53:27;11.30;99.90
18103;DHT22;9178;51.120;6.192;2022-11-03T05:55:56;11.30;99.90
18103;DHT22;9178;51.120;6.192;2022-11-03T05:58:26;11.30;99.90
18103;DHT22;9178;51.120;6.192;2022-11-03T06:00:53;11.20;99.90
18103;DHT22;9178;51.120;6.192;2022-11-03T06:03:25;11.20;99.90
18103;DHT22;9178;51.120;6.192;2022-11-03T06:05:53;11.20;99.90
18103;DHT22;9178;51.120;6.192;2022-11-03T06:08:24;11.20;99.90
18103;DHT22;9178;51.120;6.192;2022-11-03T06:10:53;11.20;99.90
18103;DHT22;9178;51.120;6.192;2022-11-03T06:13:24;11.20;99.90
18103;DHT22;9178;51.120;6.192;2022-11-03T06:15:57;11.30;99.90
18103;DHT22;9178;51.120;6.192;2022-11-03T06:18:29;11.30;99.90
18103;DHT22;9178;51.120;6.192;2022-11-03T06:21:00;11.30;99.90
18103;DHT22;9178;51.120;6.192;2022-11-03T06:23:30;11.30;99.90
18103;DHT22;9178;51.120;6.192;2022-11-03T06:25:58;11.30;99.90
18103;DHT22;9178;51.120;6.192;2022-11-03T06:28:29;11.30;99.90
18103;DHT22;9178;51.120;6.192;2022-11-03T06:30:57;11.30;99.90
18103;DHT22;9178;51.120;6.192;2022-11-03T06:33:27;11.30;99.90
18103;DHT22;9178;51.120;6.192;2022-11-03T06:36:02;11.30;99.90
18103;DHT22;9178;51.120;6.192;2022-11-03T06:38:33;11.30;99.90
18103;DHT22;9178;51.120;6.192;2022-11-03T06:41:01;11.30;99.90
18103;DHT22;9178;51.120;6.192;2022-11-03T06:43:36;11.30;99.90
18103;DHT22;9178;51.120;6.192;2022-11-03T06:46:11;11.30;99.90
18103;DHT22;9178;51.120;6.192;2022-11-03T06:48:41;11.40;99.90
18103;DHT22;9178;51.120;6.192;2022-11-03T06:51:14;11.40;99.90
18103;DHT22;9178;51.120;6.192;2022-11-03T06:53:42;11.40;99.90
18103;DHT22;9178;51.120;6.192;2022-11-03T06:56:12;11.40;99.90
18103;DHT22;9178;51.120;6.192;2022-11-03T06:58:43;11.40;99.90
18103;DHT22;9178;51.120;6.192;2022-11-03T07:01:14;11.30;99.90
18103;DHT22;9178;51.120;6.192;2022-11-03T07:03:45;11.20;99.90
18103;DHT22;9178;51.120;6.192;2022-11-03T07:06:16;11.10;99.90
18103;DHT22;9178;51.120;6.192;2022-11-03T07:08:47;11.10;99.90
18103;DHT22;9178;51.120;6.192;2022-11-03T07:11:17;11.10;99.90
18103;DHT22;9178;51.120;6.192;2022-11-03T07:13:44;11.00;99.90
18103;DHT22;9178;51.120;6.192;2022-11-03T07:16:12;11.00;99.90
18103;DHT22;9178;51.120;6.192;2022-11-03T07:18:42;11.10;99.90
18103;DHT22;9178;51.120;6.192;2022-11-03T07:21:28;11.10;99.90
18103;DHT22;9178;51.120;6.192;2022-11-03T07:23:57;11.10;99.90
18103;DHT22;9178;51.120;6.192;2022-11-03T07:26:25;11.10;99.90
18103;DHT22;9178;51.120;6.192;2022-11-03T07:28:53;11.10;99.90
18103;DHT22;9178;51.120;6.192;2022-11-03T07:31:22;11.20;99.90
18103;DHT22;9178;51.120;6.192;2022-11-03T07:33:55;11.20;99.90
18103;DHT22;9178;51.120;6.192;2022-11-03T07:36:25;11.20;99.90
18103;DHT22;9178;51.120;6.192;2022-11-03T07:38:55;11.20;99.90
18103;DHT22;9178;51.120;6.192;2022-11-03T07:41:28;11.30;99.90
18103;DHT22;9178;51.120;6.192;2022-11-03T07:43:59;11.30;99.90
18103;DHT22;9178;51.120;6.192;2022-11-03T07:46:26;11.30;99.90
18103;DHT22;9178;51.120;6.192;2022-11-03T07:48:55;11.30;99.90
18103;DHT22;9178;51.120;6.192;2022-11-03T07:51:26;11.40;99.90
18103;DHT22;9178;51.120;6.192;2022-11-03T07:53:55;11.40;99.90
18103;DHT22;9178;51.120;6.192;2022-11-03T07:56:25;11.40;99.90
18103;DHT22;9178;51.120;6.192;2022-11-03T07:58:57;11.50;99.90
18103;DHT22;9178;51.120;6.192;2022-11-03T08:01:26;11.60;99.90
18103;DHT22;9178;51.120;6.192;2022-11-03T08:03:58;11.70;99.90
18103;DHT22;9178;51.120;6.192;2022-11-03T08:06:27;11.70;99.90
18103;DHT22;9178;51.120;6.192;2022-11-03T08:08:54;11.80;99.90
18103;DHT22;9178;51.120;6.192;2022-11-03T08:11:21;11.80;99.90
18103;DHT22;9178;51.120;6.192;2022-11-03T08:13:49;11.90;99.90
18103;DHT22;9178;51.120;6.192;2022-11-03T08:16:19;11.90;99.90
18103;DHT22;9178;51.120;6.192;2022-11-03T08:18:46;12.00;99.90
18103;DHT22;9178;51.120;6.192;2022-11-03T08:21:13;12.00;99.90
18103;DHT22;9178;51.120;6.192;2022-11-03T08:23:43;12.00;99.90
18103;DHT22;9178;51.120;6.192;2022-11-03T08:26:12;12.10;99.90
18103;DHT22;9178;51.120;6.192;2022-11-03T08:28:39;12.10;99.90
18103;DHT22;9178;51.120;6.192;2022-11-03T08:31:05;12.20;99.90
18103;DHT22;9178;51.120;6.192;2022-11-03T08:33:33;12.20;99.90
18103;DHT22;9178;51.120;6.192;2022-11-03T08:36:01;12.20;99.90
18103;DHT22;9178;51.120;6.192;2022-11-03T08:38:29;12.20;99.90
18103;DHT22;9178;51.120;6.192;2022-11-03T08:40:57;12.30;99.90
18103;DHT22;9178;51.120;6.192;2022-11-03T08:43:24;12.30;99.90
18103;DHT22;9178;51.120;6.192;2022-11-03T08:45:51;12.30;99.90
18103;DHT22;9178;51.120;6.192;2022-11-03T08:48:19;12.40;99.90
18103;DHT22;9178;51.120;6.192;2022-11-03T08:50:46;12.40;99.90
18103;DHT22;9178;51.120;6.192;2022-11-03T08:53:14;12.40;99.90
18103;DHT22;9178;51.120;6.192;2022-11-03T08:55:41;12.50;99.90
18103;DHT22;9178;51.120;6.192;2022-11-03T08:58:10;12.50;99.90
18103;DHT22;9178;51.120;6.192;2022-11-03T09:00:37;12.60;99.90
18103;DHT22;9178;51.120;6.192;2022-11-03T09:03:04;12.60;99.90
18103;DHT22;9178;51.120;6.192;2022-11-03T09:05:31;12.70;99.90
18103;DHT22;9178;51.120;6.192;2022-11-03T09:07:58;12.80;99.90
18103;DHT22;9178;51.120;6.192;2022-11-03T09:10:25;12.80;99.90
18103;DHT22;9178;51.120;6.192;2022-11-03T09:12:52;12.90;99.90
18103;DHT22;9178;51.120;6.192;2022-11-03T09:15:20;12.90;99.90
18103;DHT22;9178;51.120;6.192;2022-11-03T09:17:48;13.00;99.90
18103;DHT22;9178;51.120;6.192;2022-11-03T09:20:15;13.10;99.90
18103;DHT22;9178;51.120;6.192;2022-11-03T09:22:42;13.10;99.90
18103;DHT22;9178;51.120;6.192;2022-11-03T09:25:09;13.10;99.90
18103;DHT22;9178;51.120;6.192;2022-11-03T09:27:36;13.20;99.90
18103;DHT22;9178;51.120;6.192;2022-11-03T09:30:05;13.20;99.90
18103;DHT22;9178;51.120;6.192;2022-11-03T09:32:34;13.30;99.90
18103;DHT22;9178;51.120;6.192;2022-11-03T09:35:01;13.30;99.90
18103;DHT22;9178;51.120;6.192;2022-11-03T09:37:28;13.40;99.90
18103;DHT22;9178;51.120;6.192;2022-11-03T09:39:54;13.40;99.90
18103;DHT22;9178;51.120;6.192;2022-11-03T09:42:22;13.40;99.90
18103;DHT22;9178;51.120;6.192;2022-11-03T09:44:51;13.40;99.90
18103;DHT22;9178;51.120;6.192;2022-11-03T09:47:22;13.50;99.90
18103;DHT22;9178;51.120;6.192;2022-11-03T09:49:51;13.50;99.90
18103;DHT22;9178;51.120;6.192;2022-11-03T09:52:20;13.50;99.90
18103;DHT22;9178;51.120;6.192;2022-11-03T09:54:50;13.50;99.90
18103;DHT22;9178;51.120;6.192;2022-11-03T09:57:18;13.60;99.90
18103;DHT22;9178;51.120;6.192;2022-11-03T09:59:47;13.60;99.90
18103;DHT22;9178;51.120;6.192;2022-11-03T10:02:20;13.60;99.90
18103;DHT22;9178;51.120;6.192;2022-11-03T10:04:47;13.70;99.90
18103;DHT22;9178;51.120;6.192;2022-11-03T10:07:16;13.70;99.90
18103;DHT22;9178;51.120;6.192;2022-11-03T10:09:46;13.70;99.90
18103;DHT22;9178;51.120;6.192;2022-11-03T10:12:14;13.70;99.90
18103;DHT22;9178;51.120;6.192;2022-11-03T10:14:42;13.70;99.90
18103;DHT22;9178;51.120;6.192;2022-11-03T10:17:15;13.70;99.90
18103;DHT22;9178;51.120;6.192;2022-11-03T10:19:44;13.70;99.90
18103;DHT22;9178;51.120;6.192;2022-11-03T10:22:13;13.70;99.90
18103;DHT22;9178;51.120;6.192;2022-11-03T10:24:41;13.70;99.90
18103;DHT22;9178;51.120;6.192;2022-11-03T10:27:20;13.60;99.90
18103;DHT22;9178;51.120;6.192;2022-11-03T10:30:04;13.70;99.90
18103;DHT22;9178;51.120;6.192;2022-11-03T10:32:32;13.70;99.90
18103;DHT22;9178;51.120;6.192;2022-11-03T10:35:02;13.70;99.90
18103;DHT22;9178;51.120;6.192;2022-11-03T10:37:29;13.80;99.90
18103;DHT22;9178;51.120;6.192;2022-11-03T10:39:57;13.80;99.90
18103;DHT22;9178;51.120;6.192;2022-11-03T10:42:26;13.80;99.90
18103;DHT22;9178;51.120;6.192;2022-11-03T10:45:08;13.80;99.90
18103;DHT22;9178;51.120;6.192;2022-11-03T10:47:35;13.80;99.90
18103;DHT22;9178;51.120;6.192;2022-11-03T10:50:19;13.80;99.90
18103;DHT22;9178;51.120;6.192;2022-11-03T10:52:46;13.80;99.90
18103;DHT22;9178;51.120;6.192;2022-11-03T10:55:15;13.80;99.90
18103;DHT22;9178;51.120;6.192;2022-11-03T10:57:42;13.90;99.90
18103;DHT22;9178;51.120;6.192;2022-11-03T11:00:13;13.90;99.90
18103;DHT22;9178;51.120;6.192;2022-11-03T11:02:44;13.90;99.90
18103;DHT22;9178;51.120;6.192;2022-11-03T11:05:14;14.00;99.90
18103;DHT22;9178;51.120;6.192;2022-11-03T11:07:42;14.00;99.90
18103;DHT22;9178;51.120;6.192;2022-11-03T11:10:14;14.10;99.90
18103;DHT22;9178;51.120;6.192;2022-11-03T11:13:02;14.10;99.90
18103;DHT22;9178;51.120;6.192;2022-11-03T11:15:38;14.20;99.90
18103;DHT22;9178;51.120;6.192;2022-11-03T11:18:05;14.30;99.90
18103;DHT22;9178;51.120;6.192;2022-11-03T11:20:36;14.30;99.90
18103;DHT22;9178;51.120;6.192;2022-11-03T11:29:39;14.40;99.90
18103;DHT22;9178;51.120;6.192;2022-11-03T11:35:10;14.40;99.90
18103;DHT22;9178;51.120;6.192;2022-11-03T11:37:40;14.30;99.90
18103;DHT22;9178;51.120;6.192;2022-11-03T11:40:11;14.30;99.90
18103;DHT22;9178;51.120;6.192;2022-11-03T11:48:44;14.30;99.90
18103;DHT22;9178;51.120;6.192;2022-11-03T11:51:11;14.40;99.90
18103;DHT22;9178;51.120;6.192;2022-11-03T11:53:40;14.30;99.90
18103;DHT22;9178;51.120;6.192;2022-11-03T11:56:09;14.40;99.90
18103;DHT22;9178;51.120;6.192;2022-11-03T11:58:40;14.40;99.90
18103;DHT22;9178;51.120;6.192;2022-11-03T12:01:20;14.50;99.90
18103;DHT22;9178;51.120;6.192;2022-11-03T12:03:49;14.60;99.90
18103;DHT22;9178;51.120;6.192;2022-11-03T12:06:31;14.60;99.90
18103;DHT22;9178;51.120;6.192;2022-11-03T12:09:03;14.70;99.90
18103;DHT22;9178;51.120;6.192;2022-11-03T12:11:41;14.70;99.90
18103;DHT22;9178;51.120;6.192;2022-11-03T12:14:20;14.80;99.90
18103;DHT22;9178;51.120;6.192;2022-11-03T12:16:47;14.90;99.90
18103;DHT22;9178;51.120;6.192;2022-11-03T12:19:39;14.90;99.90
18103;DHT22;9178;51.120;6.192;2022-11-03T12:22:08;15.00;99.90
18103;DHT22;9178;51.120;6.192;2022-11-03T12:24:46;14.90;99.90
18103;DHT22;9178;51.120;6.192;2022-11-03T12:30:05;14.90;99.90
18103;DHT22;9178;51.120;6.192;2022-11-03T12:32:34;14.90;99.90
18103;DHT22;9178;51.120;6.192;2022-11-03T12:35:03;14.90;99.90
18103;DHT22;9178;51.120;6.192;2022-11-03T12:37:30;14.90;99.90
18103;DHT22;9178;51.120;6.192;2022-11-03T12:39:57;14.80;99.90
18103;DHT22;9178;51.120;6.192;2022-11-03T12:42:24;14.80;99.90
18103;DHT22;9178;51.120;6.192;2022-11-03T12:44:51;14.90;99.90
18103;DHT22;9178;51.120;6.192;2022-11-03T12:47:18;14.80;99.90
18103;DHT22;9178;51.120;6.192;2022-11-03T12:49:45;14.80;99.90
18103;DHT22;9178;51.120;6.192;2022-11-03T12:52:13;14.80;99.90
18103;DHT22;9178;51.120;6.192;2022-11-03T12:54:40;14.80;99.90
18103;DHT22;9178;51.120;6.192;2022-11-03T12:57:07;14.90;99.90
18103;DHT22;9178;51.120;6.192;2022-11-03T12:59:34;14.90;99.90
18103;DHT22;9178;51.120;6.192;2022-11-03T13:02:01;14.90;99.90
18103;DHT22;9178;51.120;6.192;2022-11-03T13:04:28;14.90;99.90
18103;DHT22;9178;51.120;6.192;2022-11-03T13:06:54;14.80;99.90
18103;DHT22;9178;51.120;6.192;2022-11-03T13:09:22;14.80;99.90
18103;DHT22;9178;51.120;6.192;2022-11-03T13:11:49;14.80;99.90
18103;DHT22;9178;51.120;6.192;2022-11-03T13:14:33;14.70;99.90
18103;DHT22;9178;51.120;6.192;2022-11-03T13:17:00;14.70;99.90
18103;DHT22;9178;51.120;6.192;2022-11-03T13:19:31;14.60;99.90
18103;DHT22;9178;51.120;6.192;2022-11-03T13:21:58;14.60;99.90
18103;DHT22;9178;51.120;6.192;2022-11-03T13:24:26;14.60;99.90
18103;DHT22;9178;51.120;6.192;2022-11-03T13:26:53;14.60;99.90
18103;DHT22;9178;51.120;6.192;2022-11-03T13:29:20;14.60;99.90
18103;DHT22;9178;51.120;6.192;2022-11-03T13:31:46;14.60;99.90
18103;DHT22;9178;51.120;6.192;2022-11-03T13:34:13;14.60;99.90
18103;DHT22;9178;51.120;6.192;2022-11-03T13:36:40;14.60;99.90
18103;DHT22;9178;51.120;6.192;2022-11-03T13:39:07;14.60;99.90
18103;DHT22;9178;51.120;6.192;2022-11-03T13:41:35;14.50;99.90
18103;DHT22;9178;51.120;6.192;2022-11-03T13:44:02;14.50;99.90
18103;DHT22;9178;51.120;6.192;2022-11-03T13:46:29;14.40;99.90
18103;DHT22;9178;51.120;6.192;2022-11-03T13:48:56;14.40;99.90
18103;DHT22;9178;51.120;6.192;2022-11-03T13:51:23;14.40;99.90
18103;DHT22;9178;51.120;6.192;2022-11-03T13:53:49;14.30;99.90
18103;DHT22;9178;51.120;6.192;2022-11-03T13:56:16;14.30;99.90
18103;DHT22;9178;51.120;6.192;2022-11-03T13:58:44;14.30;99.90
18103;DHT22;9178;51.120;6.192;2022-11-03T14:01:11;14.20;99.90
18103;DHT22;9178;51.120;6.192;2022-11-03T14:03:38;14.20;99.90
18103;DHT22;9178;51.120;6.192;2022-11-03T14:06:06;14.20;99.90
18103;DHT22;9178;51.120;6.192;2022-11-03T14:08:33;14.10;99.90
18103;DHT22;9178;51.120;6.192;2022-11-03T14:11:00;14.00;99.90
18103;DHT22;9178;51.120;6.192;2022-11-03T14:13:48;14.00;99.90
18103;DHT22;9178;51.120;6.192;2022-11-03T14:16:14;13.90;99.90
18103;DHT22;9178;51.120;6.192;2022-11-03T14:18:44;13.90;99.90
18103;DHT22;9178;51.120;6.192;2022-11-03T14:21:11;13.80;99.90
18103;DHT22;9178;51.120;6.192;2022-11-03T14:23:37;13.70;99.90
18103;DHT22;9178;51.120;6.192;2022-11-03T14:26:05;13.70;99.90
18103;DHT22;9178;51.120;6.192;2022-11-03T14:28:32;13.60;99.90
18103;DHT22;9178;51.120;6.192;2022-11-03T14:31:00;13.50;99.90
18103;DHT22;9178;51.120;6.192;2022-11-03T14:33:29;13.40;99.90
18103;DHT22;9178;51.120;6.192;2022-11-03T14:35:56;13.30;99.90
18103;DHT22;9178;51.120;6.192;2022-11-03T14:38:23;13.30;99.90
18103;DHT22;9178;51.120;6.192;2022-11-03T14:40:50;13.20;99.90
18103;DHT22;9178;51.120;6.192;2022-11-03T14:43:34;13.20;99.90
18103;DHT22;9178;51.120;6.192;2022-11-03T14:46:02;13.10;99.90
18103;DHT22;9178;51.120;6.192;2022-11-03T14:48:29;13.00;99.90
18103;DHT22;9178;51.120;6.192;2022-11-03T14:50:56;13.00;99.90
18103;DHT22;9178;51.120;6.192;2022-11-03T14:53:23;12.90;99.90
18103;DHT22;9178;51.120;6.192;2022-11-03T14:55:50;12.90;99.90
18103;DHT22;9178;51.120;6.192;2022-11-03T14:58:17;12.90;99.90
18103;DHT22;9178;51.120;6.192;2022-11-03T15:00:43;12.90;99.90
18103;DHT22;9178;51.120;6.192;2022-11-03T15:03:12;12.80;99.90
18103;DHT22;9178;51.120;6.192;2022-11-03T15:05:39;12.80;99.90
18103;DHT22;9178;51.120;6.192;2022-11-03T15:08:12;12.80;99.90
18103;DHT22;9178;51.120;6.192;2022-11-03T15:10:39;12.80;99.90
18103;DHT22;9178;51.120;6.192;2022-11-03T15:13:06;12.80;99.90
18103;DHT22;9178;51.120;6.192;2022-11-03T15:15:32;12.70;99.90
18103;DHT22;9178;51.120;6.192;2022-11-03T15:18:00;12.70;99.90
18103;DHT22;9178;51.120;6.192;2022-11-03T15:20:29;12.70;99.90
18103;DHT22;9178;51.120;6.192;2022-11-03T15:22:56;12.70;99.90
18103;DHT22;9178;51.120;6.192;2022-11-03T15:25:23;12.60;99.90
18103;DHT22;9178;51.120;6.192;2022-11-03T15:27:50;12.60;99.90
18103;DHT22;9178;51.120;6.192;2022-11-03T15:30:17;12.60;99.90
18103;DHT22;9178;51.120;6.192;2022-11-03T15:32:44;12.60;99.90
18103;DHT22;9178;51.120;6.192;2022-11-03T15:35:11;12.60;99.90
18103;DHT22;9178;51.120;6.192;2022-11-03T15:37:39;12.60;99.90
18103;DHT22;9178;51.120;6.192;2022-11-03T15:40:08;12.60;99.90
18103;DHT22;9178;51.120;6.192;2022-11-03T15:42:35;12.50;99.90
18103;DHT22;9178;51.120;6.192;2022-11-03T15:45:03;12.50;99.90
18103;DHT22;9178;51.120;6.192;2022-11-03T15:47:29;12.50;99.90
18103;DHT22;9178;51.120;6.192;2022-11-03T15:49:57;12.50;99.90
18103;DHT22;9178;51.120;6.192;2022-11-03T15:52:24;12.50;99.90
18103;DHT22;9178;51.120;6.192;2022-11-03T15:54:52;12.50;99.90
18103;DHT22;9178;51.120;6.192;2022-11-03T15:57:19;12.40;99.90
18103;DHT22;9178;51.120;6.192;2022-11-03T15:59:46;12.40;99.90
18103;DHT22;9178;51.120;6.192;2022-11-03T16:02:13;12.40;99.90
18103;DHT22;9178;51.120;6.192;2022-11-03T16:04:39;12.40;99.90
18103;DHT22;9178;51.120;6.192;2022-11-03T16:07:06;12.40;99.90
18103;DHT22;9178;51.120;6.192;2022-11-03T16:09:33;12.40;99.90
18103;DHT22;9178;51.120;6.192;2022-11-03T16:12:01;12.40;99.90
18103;DHT22;9178;51.120;6.192;2022-11-03T16:14:28;12.40;99.90
18103;DHT22;9178;51.120;6.192;2022-11-03T16:16:55;12.40;99.90
18103;DHT22;9178;51.120;6.192;2022-11-03T16:19:22;12.40;99.90
18103;DHT22;9178;51.120;6.192;2022-11-03T16:21:48;12.30;99.90